Anza, California
Current Conditions -  °F | °C
As of 6:53 AM on Saturday 01 Nov 2014 (Local Time) from KPSP Reporting Station
Broken Clouds Broken Clouds  
Wind Chill: 63°   Ceiling: 8000
Heat Index: 63°   Visibility: 10mi
Dew Point: 47°   Wind: 16mph
Humidity: 56%   Direction: 330°NNW
Pressure: 29.78"   Gusts: NA
Location:  33.55°N, 116.67°W
Report Text: KPSP 011353Z 33014KT 10SM BKN080 17/08 A2978 RMK AO2 SLP084 T01720083
Loading
Personal Weather Stations






























Interactive Weather Map
Tropical Storm Tracking
New forecast layout! Learn more

10-Day Weather Forecast

Advertisements
Track Severe Weather on mobile